sensor_id;sensor_type;location;lat;lon;timestamp;P1;durP1;ratioP1;P2;durP2;ratioP2
62071;SDS011;48031;48.542;13.232;2023-03-01T00:02:05;10.73;;;5.43;;
62071;SDS011;48031;48.542;13.232;2023-03-01T00:06:08;8.48;;;5.05;;
62071;SDS011;48031;48.542;13.232;2023-03-01T00:10:10;12.45;;;6.10;;
62071;SDS011;48031;48.542;13.232;2023-03-01T00:14:12;6.63;;;4.07;;
62071;SDS011;48031;48.542;13.232;2023-03-01T00:18:15;10.35;;;5.22;;
62071;SDS011;48031;48.542;13.232;2023-03-01T00:22:16;8.90;;;4.85;;
62071;SDS011;48031;48.542;13.232;2023-03-01T00:26:19;13.10;;;5.93;;
62071;SDS011;48031;48.542;13.232;2023-03-01T00:30:21;13.05;;;6.97;;
62071;SDS011;48031;48.542;13.232;2023-03-01T00:34:23;11.75;;;6.55;;
62071;SDS011;48031;48.542;13.232;2023-03-01T00:38:25;12.80;;;6.38;;
62071;SDS011;48031;48.542;13.232;2023-03-01T00:42:27;16.23;;;7.75;;
62071;SDS011;48031;48.542;13.232;2023-03-01T00:46:29;12.48;;;6.32;;
62071;SDS011;48031;48.542;13.232;2023-03-01T00:50:34;15.30;;;7.00;;
62071;SDS011;48031;48.542;13.232;2023-03-01T00:54:36;12.85;;;5.97;;
62071;SDS011;48031;48.542;13.232;2023-03-01T00:58:38;12.65;;;5.82;;
62071;SDS011;48031;48.542;13.232;2023-03-01T01:02:40;11.90;;;6.30;;
62071;SDS011;48031;48.542;13.232;2023-03-01T01:06:43;11.50;;;6.22;;
62071;SDS011;48031;48.542;13.232;2023-03-01T01:10:46;13.65;;;5.72;;
62071;SDS011;48031;48.542;13.232;2023-03-01T01:14:48;11.18;;;5.43;;
62071;SDS011;48031;48.542;13.232;2023-03-01T01:18:50;13.43;;;5.72;;
62071;SDS011;48031;48.542;13.232;2023-03-01T01:22:52;11.52;;;5.90;;
62071;SDS011;48031;48.542;13.232;2023-03-01T01:26:54;5.88;;;3.53;;
62071;SDS011;48031;48.542;13.232;2023-03-01T01:30:55;8.00;;;4.50;;
62071;SDS011;48031;48.542;13.232;2023-03-01T01:34:57;5.30;;;3.63;;
62071;SDS011;48031;48.542;13.232;2023-03-01T01:38:59;7.40;;;3.92;;
62071;SDS011;48031;48.542;13.232;2023-03-01T01:43:01;6.65;;;4.25;;
62071;SDS011;48031;48.542;13.232;2023-03-01T01:47:04;8.25;;;4.00;;
62071;SDS011;48031;48.542;13.232;2023-03-01T01:51:17;10.57;;;4.95;;
62071;SDS011;48031;48.542;13.232;2023-03-01T01:55:22;8.82;;;5.00;;
62071;SDS011;48031;48.542;13.232;2023-03-01T01:59:27;10.40;;;5.07;;
62071;SDS011;48031;48.542;13.232;2023-03-01T02:03:32;11.88;;;6.13;;
62071;SDS011;48031;48.542;13.232;2023-03-01T02:07:39;13.45;;;6.72;;
62071;SDS011;48031;48.542;13.232;2023-03-01T02:11:41;10.10;;;5.18;;
62071;SDS011;48031;48.542;13.232;2023-03-01T02:15:45;10.10;;;5.10;;
62071;SDS011;48031;48.542;13.232;2023-03-01T02:23:57;9.00;;;4.88;;
62071;SDS011;48031;48.542;13.232;2023-03-01T02:32:17;12.73;;;6.07;;
62071;SDS011;48031;48.542;13.232;2023-03-01T02:36:26;15.00;;;6.60;;
62071;SDS011;48031;48.542;13.232;2023-03-01T02:40:33;13.75;;;6.22;;
62071;SDS011;48031;48.542;13.232;2023-03-01T02:44:36;12.90;;;5.43;;
62071;SDS011;48031;48.542;13.232;2023-03-01T02:48:41;14.30;;;6.97;;
62071;SDS011;48031;48.542;13.232;2023-03-01T02:52:46;12.85;;;6.13;;
62071;SDS011;48031;48.542;13.232;2023-03-01T02:56:58;15.00;;;6.60;;
62071;SDS011;48031;48.542;13.232;2023-03-01T03:01:02;11.90;;;5.75;;
62071;SDS011;48031;48.542;13.232;2023-03-01T03:05:05;14.32;;;6.22;;
62071;SDS011;48031;48.542;13.232;2023-03-01T03:09:13;12.63;;;6.13;;
62071;SDS011;48031;48.542;13.232;2023-03-01T03:13:17;11.50;;;5.82;;
62071;SDS011;48031;48.542;13.232;2023-03-01T03:17:20;11.45;;;5.43;;
62071;SDS011;48031;48.542;13.232;2023-03-01T03:21:22;11.40;;;5.85;;
62071;SDS011;48031;48.542;13.232;2023-03-01T03:25:24;16.70;;;7.57;;
62071;SDS011;48031;48.542;13.232;2023-03-01T03:29:27;9.40;;;5.47;;
62071;SDS011;48031;48.542;13.232;2023-03-01T03:33:31;13.80;;;6.70;;
62071;SDS011;48031;48.542;13.232;2023-03-01T03:42:10;8.93;;;4.78;;
62071;SDS011;48031;48.542;13.232;2023-03-01T03:46:12;16.83;;;7.53;;
62071;SDS011;48031;48.542;13.232;2023-03-01T03:50:15;11.38;;;6.18;;
62071;SDS011;48031;48.542;13.232;2023-03-01T03:54:18;18.15;;;7.25;;
62071;SDS011;48031;48.542;13.232;2023-03-01T03:58:21;13.32;;;6.47;;
62071;SDS011;48031;48.542;13.232;2023-03-01T04:02:24;15.07;;;6.63;;
62071;SDS011;48031;48.542;13.232;2023-03-01T04:06:26;10.57;;;5.10;;
62071;SDS011;48031;48.542;13.232;2023-03-01T04:10:31;11.25;;;5.97;;
62071;SDS011;48031;48.542;13.232;2023-03-01T04:14:38;12.13;;;5.60;;
62071;SDS011;48031;48.542;13.232;2023-03-01T04:18:40;11.82;;;5.35;;
62071;SDS011;48031;48.542;13.232;2023-03-01T04:22:43;8.98;;;4.72;;
62071;SDS011;48031;48.542;13.232;2023-03-01T04:26:49;9.98;;;4.95;;
62071;SDS011;48031;48.542;13.232;2023-03-01T04:30:52;13.10;;;5.93;;
62071;SDS011;48031;48.542;13.232;2023-03-01T04:34:55;10.65;;;4.88;;
62071;SDS011;48031;48.542;13.232;2023-03-01T04:38:57;12.05;;;5.50;;
62071;SDS011;48031;48.542;13.232;2023-03-01T04:42:59;9.23;;;4.53;;
62071;SDS011;48031;48.542;13.232;2023-03-01T04:47:01;10.40;;;4.88;;
62071;SDS011;48031;48.542;13.232;2023-03-01T04:51:04;11.13;;;4.82;;
62071;SDS011;48031;48.542;13.232;2023-03-01T04:55:07;10.35;;;4.60;;
62071;SDS011;48031;48.542;13.232;2023-03-01T04:59:10;9.00;;;4.78;;
62071;SDS011;48031;48.542;13.232;2023-03-01T05:03:14;13.32;;;6.40;;
62071;SDS011;48031;48.542;13.232;2023-03-01T05:07:19;11.50;;;4.95;;
62071;SDS011;48031;48.542;13.232;2023-03-01T05:11:21;14.27;;;5.90;;
62071;SDS011;48031;48.542;13.232;2023-03-01T05:15:24;14.95;;;6.95;;
62071;SDS011;48031;48.542;13.232;2023-03-01T05:19:30;14.97;;;6.73;;
62071;SDS011;48031;48.542;13.232;2023-03-01T05:23:33;16.48;;;7.32;;
62071;SDS011;48031;48.542;13.232;2023-03-01T05:27:35;14.60;;;7.03;;
62071;SDS011;48031;48.542;13.232;2023-03-01T05:31:37;13.27;;;6.50;;
62071;SDS011;48031;48.542;13.232;2023-03-01T05:35:43;21.77;;;8.38;;
62071;SDS011;48031;48.542;13.232;2023-03-01T05:39:46;17.67;;;8.35;;
62071;SDS011;48031;48.542;13.232;2023-03-01T05:43:51;19.67;;;8.52;;
62071;SDS011;48031;48.542;13.232;2023-03-01T05:47:53;16.23;;;6.88;;
62071;SDS011;48031;48.542;13.232;2023-03-01T05:51:56;19.42;;;8.65;;
62071;SDS011;48031;48.542;13.232;2023-03-01T05:55:58;18.88;;;7.40;;
62071;SDS011;48031;48.542;13.232;2023-03-01T06:00:01;13.73;;;6.47;;
62071;SDS011;48031;48.542;13.232;2023-03-01T06:04:12;6.93;;;4.10;;
62071;SDS011;48031;48.542;13.232;2023-03-01T06:08:15;6.30;;;4.05;;
62071;SDS011;48031;48.542;13.232;2023-03-01T06:12:17;7.15;;;4.30;;
62071;SDS011;48031;48.542;13.232;2023-03-01T06:16:19;6.57;;;4.00;;
62071;SDS011;48031;48.542;13.232;2023-03-01T06:20:21;7.35;;;4.55;;
62071;SDS011;48031;48.542;13.232;2023-03-01T06:24:25;9.43;;;4.55;;
62071;SDS011;48031;48.542;13.232;2023-03-01T06:28:27;9.07;;;4.28;;
62071;SDS011;48031;48.542;13.232;2023-03-01T06:32:29;10.40;;;5.63;;
62071;SDS011;48031;48.542;13.232;2023-03-01T06:36:32;11.07;;;4.72;;
62071;SDS011;48031;48.542;13.232;2023-03-01T06:40:34;12.70;;;5.57;;
62071;SDS011;48031;48.542;13.232;2023-03-01T06:44:37;16.85;;;7.63;;
62071;SDS011;48031;48.542;13.232;2023-03-01T06:48:39;22.38;;;9.60;;
62071;SDS011;48031;48.542;13.232;2023-03-01T06:52:41;19.73;;;8.32;;
62071;SDS011;48031;48.542;13.232;2023-03-01T06:56:48;18.20;;;8.20;;
62071;SDS011;48031;48.542;13.232;2023-03-01T07:00:51;21.63;;;8.67;;
62071;SDS011;48031;48.542;13.232;2023-03-01T07:04:53;14.70;;;6.75;;
62071;SDS011;48031;48.542;13.232;2023-03-01T07:08:55;25.00;;;10.27;;
62071;SDS011;48031;48.542;13.232;2023-03-01T07:12:57;19.13;;;9.25;;
62071;SDS011;48031;48.542;13.232;2023-03-01T07:17:00;20.58;;;9.55;;
62071;SDS011;48031;48.542;13.232;2023-03-01T07:21:09;24.05;;;9.57;;
62071;SDS011;48031;48.542;13.232;2023-03-01T07:25:15;19.65;;;8.70;;
62071;SDS011;48031;48.542;13.232;2023-03-01T07:29:16;27.17;;;11.75;;
62071;SDS011;48031;48.542;13.232;2023-03-01T07:33:19;19.30;;;9.00;;
62071;SDS011;48031;48.542;13.232;2023-03-01T07:37:21;22.67;;;9.98;;
62071;SDS011;48031;48.542;13.232;2023-03-01T07:41:23;24.60;;;10.52;;
62071;SDS011;48031;48.542;13.232;2023-03-01T07:45:26;19.73;;;8.57;;
62071;SDS011;48031;48.542;13.232;2023-03-01T07:49:29;23.40;;;10.00;;
62071;SDS011;48031;48.542;13.232;2023-03-01T07:53:31;22.02;;;9.40;;
62071;SDS011;48031;48.542;13.232;2023-03-01T07:57:35;21.00;;;9.13;;
62071;SDS011;48031;48.542;13.232;2023-03-01T08:01:37;20.85;;;9.25;;
62071;SDS011;48031;48.542;13.232;2023-03-01T08:05:40;26.85;;;10.98;;
62071;SDS011;48031;48.542;13.232;2023-03-01T08:09:42;21.70;;;10.05;;
62071;SDS011;48031;48.542;13.232;2023-03-01T08:13:43;18.50;;;8.88;;
62071;SDS011;48031;48.542;13.232;2023-03-01T08:17:51;18.20;;;7.88;;
62071;SDS011;48031;48.542;13.232;2023-03-01T08:21:54;26.48;;;11.65;;
62071;SDS011;48031;48.542;13.232;2023-03-01T08:26:02;19.83;;;8.30;;
62071;SDS011;48031;48.542;13.232;2023-03-01T08:30:15;25.13;;;10.57;;
62071;SDS011;48031;48.542;13.232;2023-03-01T08:34:17;20.80;;;10.07;;
62071;SDS011;48031;48.542;13.232;2023-03-01T08:38:21;27.27;;;11.90;;
62071;SDS011;48031;48.542;13.232;2023-03-01T08:42:23;26.52;;;11.88;;
62071;SDS011;48031;48.542;13.232;2023-03-01T08:46:26;19.15;;;9.70;;
62071;SDS011;48031;48.542;13.232;2023-03-01T08:50:30;19.45;;;9.35;;
62071;SDS011;48031;48.542;13.232;2023-03-01T08:54:32;18.05;;;8.60;;
62071;SDS011;48031;48.542;13.232;2023-03-01T08:58:35;18.17;;;8.98;;
62071;SDS011;48031;48.542;13.232;2023-03-01T09:02:38;18.88;;;9.98;;
62071;SDS011;48031;48.542;13.232;2023-03-01T09:06:40;18.33;;;8.60;;
62071;SDS011;48031;48.542;13.232;2023-03-01T09:10:43;16.88;;;8.98;;
62071;SDS011;48031;48.542;13.232;2023-03-01T09:14:45;17.05;;;8.13;;
62071;SDS011;48031;48.542;13.232;2023-03-01T09:18:51;11.65;;;7.13;;
62071;SDS011;48031;48.542;13.232;2023-03-01T09:22:54;18.63;;;9.85;;
62071;SDS011;48031;48.542;13.232;2023-03-01T09:26:56;17.25;;;8.85;;
62071;SDS011;48031;48.542;13.232;2023-03-01T09:30:59;18.67;;;9.43;;
62071;SDS011;48031;48.542;13.232;2023-03-01T09:35:02;13.90;;;8.20;;
62071;SDS011;48031;48.542;13.232;2023-03-01T09:39:07;18.25;;;9.05;;
62071;SDS011;48031;48.542;13.232;2023-03-01T09:43:14;16.98;;;9.23;;
62071;SDS011;48031;48.542;13.232;2023-03-01T09:47:32;17.17;;;9.18;;
62071;SDS011;48031;48.542;13.232;2023-03-01T09:51:39;14.80;;;9.18;;
62071;SDS011;48031;48.542;13.232;2023-03-01T10:01:35;12.13;;;7.20;;
62071;SDS011;48031;48.542;13.232;2023-03-01T10:09:59;14.73;;;8.38;;
62071;SDS011;48031;48.542;13.232;2023-03-01T10:14:06;14.40;;;7.65;;
62071;SDS011;48031;48.542;13.232;2023-03-01T10:18:20;12.55;;;7.82;;
62071;SDS011;48031;48.542;13.232;2023-03-01T10:22:28;13.65;;;8.90;;
62071;SDS011;48031;48.542;13.232;2023-03-01T10:26:37;15.52;;;8.85;;
62071;SDS011;48031;48.542;13.232;2023-03-01T10:30:46;13.13;;;7.60;;
62071;SDS011;48031;48.542;13.232;2023-03-01T10:34:48;12.25;;;7.90;;
62071;SDS011;48031;48.542;13.232;2023-03-01T10:38:54;16.30;;;9.82;;
62071;SDS011;48031;48.542;13.232;2023-03-01T10:42:58;11.80;;;7.40;;
62071;SDS011;48031;48.542;13.232;2023-03-01T10:47:04;12.43;;;8.13;;
62071;SDS011;48031;48.542;13.232;2023-03-01T10:51:06;15.07;;;9.80;;
62071;SDS011;48031;48.542;13.232;2023-03-01T10:59:41;14.85;;;9.65;;
62071;SDS011;48031;48.542;13.232;2023-03-01T11:03:43;10.57;;;7.43;;
62071;SDS011;48031;48.542;13.232;2023-03-01T11:07:48;12.23;;;8.10;;
62071;SDS011;48031;48.542;13.232;2023-03-01T11:11:54;9.82;;;7.10;;
62071;SDS011;48031;48.542;13.232;2023-03-01T11:16:00;11.05;;;8.23;;
62071;SDS011;48031;48.542;13.232;2023-03-01T11:24:16;8.75;;;6.78;;
62071;SDS011;48031;48.542;13.232;2023-03-01T11:28:19;11.77;;;8.60;;
62071;SDS011;48031;48.542;13.232;2023-03-01T11:32:23;8.45;;;5.80;;
62071;SDS011;48031;48.542;13.232;2023-03-01T11:36:30;7.78;;;5.90;;
62071;SDS011;48031;48.542;13.232;2023-03-01T11:40:54;7.43;;;6.07;;
62071;SDS011;48031;48.542;13.232;2023-03-01T11:45:03;8.57;;;6.60;;
62071;SDS011;48031;48.542;13.232;2023-03-01T11:53:48;8.95;;;6.63;;
62071;SDS011;48031;48.542;13.232;2023-03-01T12:06:52;9.35;;;7.45;;
62071;SDS011;48031;48.542;13.232;2023-03-01T12:24:52;8.40;;;7.03;;
62071;SDS011;48031;48.542;13.232;2023-03-01T12:37:58;8.80;;;6.78;;
62071;SDS011;48031;48.542;13.232;2023-03-01T12:51:08;10.35;;;8.30;;
62071;SDS011;48031;48.542;13.232;2023-03-01T13:08:30;6.97;;;5.13;;
62071;SDS011;48031;48.542;13.232;2023-03-01T13:16:52;6.75;;;5.63;;
62071;SDS011;48031;48.542;13.232;2023-03-01T13:20:55;6.07;;;5.47;;
62071;SDS011;48031;48.542;13.232;2023-03-01T13:25:03;6.57;;;5.93;;
62071;SDS011;48031;48.542;13.232;2023-03-01T13:29:25;6.47;;;5.83;;
62071;SDS011;48031;48.542;13.232;2023-03-01T13:37:31;7.07;;;6.22;;
62071;SDS011;48031;48.542;13.232;2023-03-01T13:51:03;9.50;;;8.20;;
62071;SDS011;48031;48.542;13.232;2023-03-01T13:59:19;11.63;;;10.45;;
62071;SDS011;48031;48.542;13.232;2023-03-01T14:03:22;11.52;;;10.15;;
62071;SDS011;48031;48.542;13.232;2023-03-01T14:07:25;9.40;;;8.40;;
62071;SDS011;48031;48.542;13.232;2023-03-01T14:15:47;12.18;;;9.93;;
62071;SDS011;48031;48.542;13.232;2023-03-01T14:19:59;16.55;;;10.90;;
62071;SDS011;48031;48.542;13.232;2023-03-01T14:24:05;10.77;;;8.77;;
62071;SDS011;48031;48.542;13.232;2023-03-01T14:28:17;11.13;;;8.95;;
62071;SDS011;48031;48.542;13.232;2023-03-01T14:32:29;11.15;;;8.52;;
62071;SDS011;48031;48.542;13.232;2023-03-01T14:40:35;9.68;;;7.10;;
62071;SDS011;48031;48.542;13.232;2023-03-01T14:44:40;10.65;;;8.73;;
62071;SDS011;48031;48.542;13.232;2023-03-01T14:48:44;12.23;;;8.55;;
62071;SDS011;48031;48.542;13.232;2023-03-01T14:52:46;11.32;;;8.32;;
62071;SDS011;48031;48.542;13.232;2023-03-01T14:56:50;11.68;;;8.20;;
62071;SDS011;48031;48.542;13.232;2023-03-01T15:00:54;10.75;;;7.85;;
62071;SDS011;48031;48.542;13.232;2023-03-01T15:04:58;10.05;;;6.78;;
62071;SDS011;48031;48.542;13.232;2023-03-01T15:09:04;11.23;;;7.05;;
62071;SDS011;48031;48.542;13.232;2023-03-01T15:13:13;9.40;;;6.90;;
62071;SDS011;48031;48.542;13.232;2023-03-01T15:21:35;9.10;;;6.32;;
62071;SDS011;48031;48.542;13.232;2023-03-01T15:25:43;11.68;;;6.07;;
62071;SDS011;48031;48.542;13.232;2023-03-01T15:29:53;7.45;;;5.30;;
62071;SDS011;48031;48.542;13.232;2023-03-01T15:34:08;9.95;;;5.72;;
62071;SDS011;48031;48.542;13.232;2023-03-01T15:42:51;8.77;;;4.75;;
62071;SDS011;48031;48.542;13.232;2023-03-01T15:46:53;8.82;;;6.07;;
62071;SDS011;48031;48.542;13.232;2023-03-01T15:50:58;9.40;;;5.60;;
62071;SDS011;48031;48.542;13.232;2023-03-01T15:59:05;8.52;;;5.20;;
62071;SDS011;48031;48.542;13.232;2023-03-01T16:03:13;6.97;;;4.60;;
62071;SDS011;48031;48.542;13.232;2023-03-01T16:07:15;6.97;;;4.72;;
62071;SDS011;48031;48.542;13.232;2023-03-01T16:11:18;10.13;;;6.35;;
62071;SDS011;48031;48.542;13.232;2023-03-01T16:15:21;9.90;;;5.80;;
62071;SDS011;48031;48.542;13.232;2023-03-01T16:19:33;7.65;;;4.43;;
62071;SDS011;48031;48.542;13.232;2023-03-01T16:23:35;8.98;;;5.80;;
62071;SDS011;48031;48.542;13.232;2023-03-01T16:27:37;7.75;;;4.93;;
62071;SDS011;48031;48.542;13.232;2023-03-01T16:31:39;5.93;;;3.80;;
62071;SDS011;48031;48.542;13.232;2023-03-01T16:35:41;10.93;;;6.78;;
62071;SDS011;48031;48.542;13.232;2023-03-01T16:39:44;13.50;;;6.30;;
62071;SDS011;48031;48.542;13.232;2023-03-01T16:48:34;10.80;;;5.80;;
62071;SDS011;48031;48.542;13.232;2023-03-01T16:52:36;10.70;;;5.57;;
62071;SDS011;48031;48.542;13.232;2023-03-01T16:56:38;15.27;;;7.10;;
62071;SDS011;48031;48.542;13.232;2023-03-01T17:00:41;11.35;;;6.18;;
62071;SDS011;48031;48.542;13.232;2023-03-01T17:04:42;11.02;;;5.65;;
62071;SDS011;48031;48.542;13.232;2023-03-01T17:08:44;13.18;;;6.10;;
62071;SDS011;48031;48.542;13.232;2023-03-01T17:12:47;12.68;;;5.85;;
62071;SDS011;48031;48.542;13.232;2023-03-01T17:16:50;10.63;;;5.90;;
62071;SDS011;48031;48.542;13.232;2023-03-01T17:20:54;14.52;;;5.57;;
62071;SDS011;48031;48.542;13.232;2023-03-01T17:24:56;14.82;;;6.90;;
62071;SDS011;48031;48.542;13.232;2023-03-01T17:28:57;11.23;;;6.10;;
62071;SDS011;48031;48.542;13.232;2023-03-01T17:38:49;10.80;;;6.18;;
62071;SDS011;48031;48.542;13.232;2023-03-01T17:42:52;10.63;;;5.95;;
62071;SDS011;48031;48.542;13.232;2023-03-01T17:46:54;13.95;;;6.63;;
62071;SDS011;48031;48.542;13.232;2023-03-01T17:50:56;8.60;;;4.82;;
62071;SDS011;48031;48.542;13.232;2023-03-01T17:54:58;15.55;;;7.20;;
62071;SDS011;48031;48.542;13.232;2023-03-01T17:59:00;13.98;;;6.75;;
62071;SDS011;48031;48.542;13.232;2023-03-01T18:03:02;14.13;;;7.03;;
62071;SDS011;48031;48.542;13.232;2023-03-01T18:07:04;14.07;;;7.45;;
62071;SDS011;48031;48.542;13.232;2023-03-01T18:11:06;15.25;;;7.97;;
62071;SDS011;48031;48.542;13.232;2023-03-01T18:15:09;16.23;;;6.90;;
62071;SDS011;48031;48.542;13.232;2023-03-01T18:19:11;16.42;;;8.65;;
62071;SDS011;48031;48.542;13.232;2023-03-01T18:23:13;18.92;;;8.32;;
62071;SDS011;48031;48.542;13.232;2023-03-01T18:27:15;23.48;;;9.35;;
62071;SDS011;48031;48.542;13.232;2023-03-01T18:31:17;19.58;;;9.32;;
62071;SDS011;48031;48.542;13.232;2023-03-01T18:35:22;22.80;;;10.27;;
62071;SDS011;48031;48.542;13.232;2023-03-01T18:39:24;17.30;;;8.60;;
62071;SDS011;48031;48.542;13.232;2023-03-01T18:43:26;21.13;;;10.15;;
62071;SDS011;48031;48.542;13.232;2023-03-01T18:47:29;27.30;;;10.18;;
62071;SDS011;48031;48.542;13.232;2023-03-01T18:51:31;19.38;;;9.45;;
62071;SDS011;48031;48.542;13.232;2023-03-01T18:55:36;19.70;;;9.63;;
62071;SDS011;48031;48.542;13.232;2023-03-01T18:59:39;22.92;;;9.63;;
62071;SDS011;48031;48.542;13.232;2023-03-01T19:03:41;22.55;;;9.95;;
62071;SDS011;48031;48.542;13.232;2023-03-01T19:07:43;20.17;;;9.30;;
62071;SDS011;48031;48.542;13.232;2023-03-01T19:11:44;19.83;;;9.55;;
62071;SDS011;48031;48.542;13.232;2023-03-01T19:15:46;20.88;;;10.70;;
62071;SDS011;48031;48.542;13.232;2023-03-01T19:19:48;18.75;;;9.02;;
62071;SDS011;48031;48.542;13.232;2023-03-01T19:23:51;18.33;;;9.65;;
62071;SDS011;48031;48.542;13.232;2023-03-01T19:27:54;21.33;;;9.77;;
62071;SDS011;48031;48.542;13.232;2023-03-01T19:31:55;18.58;;;9.82;;
62071;SDS011;48031;48.542;13.232;2023-03-01T19:35:57;19.98;;;9.45;;
62071;SDS011;48031;48.542;13.232;2023-03-01T19:39:59;20.33;;;8.98;;
62071;SDS011;48031;48.542;13.232;2023-03-01T19:44:01;13.90;;;6.90;;
62071;SDS011;48031;48.542;13.232;2023-03-01T19:48:05;11.93;;;6.00;;
62071;SDS011;48031;48.542;13.232;2023-03-01T19:52:07;17.00;;;8.75;;
62071;SDS011;48031;48.542;13.232;2023-03-01T19:56:09;14.63;;;7.15;;
62071;SDS011;48031;48.542;13.232;2023-03-01T20:00:11;18.02;;;8.82;;
62071;SDS011;48031;48.542;13.232;2023-03-01T20:04:14;17.63;;;9.02;;
62071;SDS011;48031;48.542;13.232;2023-03-01T20:08:16;13.55;;;6.93;;
62071;SDS011;48031;48.542;13.232;2023-03-01T20:12:18;14.98;;;6.72;;
62071;SDS011;48031;48.542;13.232;2023-03-01T20:16:20;22.05;;;9.00;;
62071;SDS011;48031;48.542;13.232;2023-03-01T20:20:23;13.40;;;6.70;;
62071;SDS011;48031;48.542;13.232;2023-03-01T20:24:25;17.33;;;8.02;;
62071;SDS011;48031;48.542;13.232;2023-03-01T20:28:27;17.15;;;8.68;;
62071;SDS011;48031;48.542;13.232;2023-03-01T20:32:29;17.70;;;8.05;;
62071;SDS011;48031;48.542;13.232;2023-03-01T20:36:32;14.05;;;6.72;;
62071;SDS011;48031;48.542;13.232;2023-03-01T20:40:36;18.63;;;8.10;;
62071;SDS011;48031;48.542;13.232;2023-03-01T20:44:38;14.23;;;7.03;;
62071;SDS011;48031;48.542;13.232;2023-03-01T20:48:44;13.73;;;6.93;;
62071;SDS011;48031;48.542;13.232;2023-03-01T20:52:46;18.60;;;8.23;;
62071;SDS011;48031;48.542;13.232;2023-03-01T20:56:48;17.42;;;7.80;;
62071;SDS011;48031;48.542;13.232;2023-03-01T21:00:50;16.65;;;7.38;;
62071;SDS011;48031;48.542;13.232;2023-03-01T21:04:52;11.20;;;5.10;;
62071;SDS011;48031;48.542;13.232;2023-03-01T21:08:54;17.08;;;7.55;;
62071;SDS011;48031;48.542;13.232;2023-03-01T21:12:57;17.23;;;8.07;;
62071;SDS011;48031;48.542;13.232;2023-03-01T21:16:58;17.08;;;7.75;;
62071;SDS011;48031;48.542;13.232;2023-03-01T21:21:01;16.40;;;6.95;;
62071;SDS011;48031;48.542;13.232;2023-03-01T21:25:05;17.40;;;8.00;;
62071;SDS011;48031;48.542;13.232;2023-03-01T21:29:07;12.80;;;6.47;;
62071;SDS011;48031;48.542;13.232;2023-03-01T21:33:10;14.68;;;7.13;;
62071;SDS011;48031;48.542;13.232;2023-03-01T21:37:12;19.90;;;9.25;;
62071;SDS011;48031;48.542;13.232;2023-03-01T21:41:15;16.70;;;7.53;;
62071;SDS011;48031;48.542;13.232;2023-03-01T21:45:17;15.38;;;6.88;;
62071;SDS011;48031;48.542;13.232;2023-03-01T21:49:19;17.63;;;6.90;;
62071;SDS011;48031;48.542;13.232;2023-03-01T21:53:22;16.70;;;7.35;;
62071;SDS011;48031;48.542;13.232;2023-03-01T21:57:24;16.95;;;8.48;;
62071;SDS011;48031;48.542;13.232;2023-03-01T22:01:26;15.95;;;7.35;;
62071;SDS011;48031;48.542;13.232;2023-03-01T22:05:29;13.27;;;6.60;;
62071;SDS011;48031;48.542;13.232;2023-03-01T22:09:31;17.95;;;7.65;;
62071;SDS011;48031;48.542;13.232;2023-03-01T22:13:35;16.25;;;7.97;;
62071;SDS011;48031;48.542;13.232;2023-03-01T22:17:37;14.25;;;7.40;;
62071;SDS011;48031;48.542;13.232;2023-03-01T22:21:39;14.80;;;6.93;;
62071;SDS011;48031;48.542;13.232;2023-03-01T22:25:43;19.48;;;8.68;;
62071;SDS011;48031;48.542;13.232;2023-03-01T22:29:45;20.45;;;8.63;;
62071;SDS011;48031;48.542;13.232;2023-03-01T22:33:48;16.08;;;7.63;;
62071;SDS011;48031;48.542;13.232;2023-03-01T22:37:50;16.00;;;7.68;;
62071;SDS011;48031;48.542;13.232;2023-03-01T22:41:52;15.20;;;6.85;;
62071;SDS011;48031;48.542;13.232;2023-03-01T22:45:54;10.02;;;5.30;;
62071;SDS011;48031;48.542;13.232;2023-03-01T22:49:56;13.77;;;6.63;;
62071;SDS011;48031;48.542;13.232;2023-03-01T22:53:59;15.80;;;6.65;;
62071;SDS011;48031;48.542;13.232;2023-03-01T22:58:01;15.05;;;6.50;;
62071;SDS011;48031;48.542;13.232;2023-03-01T23:02:03;14.48;;;6.28;;
62071;SDS011;48031;48.542;13.232;2023-03-01T23:06:05;18.33;;;7.60;;
62071;SDS011;48031;48.542;13.232;2023-03-01T23:10:07;12.40;;;6.22;;
62071;SDS011;48031;48.542;13.232;2023-03-01T23:14:09;19.45;;;7.32;;
62071;SDS011;48031;48.542;13.232;2023-03-01T23:18:12;14.95;;;6.50;;
62071;SDS011;48031;48.542;13.232;2023-03-01T23:22:14;15.82;;;7.00;;
62071;SDS011;48031;48.542;13.232;2023-03-01T23:26:16;15.85;;;7.03;;
62071;SDS011;48031;48.542;13.232;2023-03-01T23:30:19;11.93;;;5.60;;
62071;SDS011;48031;48.542;13.232;2023-03-01T23:34:20;12.90;;;5.55;;
62071;SDS011;48031;48.542;13.232;2023-03-01T23:38:22;12.85;;;5.75;;
62071;SDS011;48031;48.542;13.232;2023-03-01T23:42:24;10.65;;;4.85;;
62071;SDS011;48031;48.542;13.232;2023-03-01T23:46:27;10.13;;;4.95;;
62071;SDS011;48031;48.542;13.232;2023-03-01T23:50:33;10.30;;;4.90;;
62071;SDS011;48031;48.542;13.232;2023-03-01T23:54:35;11.40;;;5.53;;
62071;SDS011;48031;48.542;13.232;2023-03-01T23:58:37;12.88;;;6.13;;
